Orange Beach, AL (36561)

11:22 AM CDT on March 28, 2015 (GMT -0500)
Ono Island North | | Change Station
CLOSE
Current Station
Personal Weather Station
Location: Orange Beach, AL
Elevation: 26 ft
Nearby Weather Stations

Elev 26 ft 30.29 °N, 87.49 °W | Updated 8 minutes ago

Clear
Clear
56.9 °F
Feels Like 56.9 °F
N
4.0
Wind Variable Wind from NE

Today
High -- | Low -- °F
--% Chance of Precip.
Yesterday
High -- | Low -- °F
Precip. -- in
6:44 AM 7:06 PM
Waxing Gibbous, 63% visible
Pressure 30.26 in
Visibility 10.0 miles
Clouds Clear
Dew Point 37 °F
Humidity 48%
Rainfall 0.00 in
Snow Depth Not available.
UV 9 out of 12
Pollen 9.80 out of 12
Air Quality Not available.
Flu Activity Not available.
METAR KJKA 281615Z AUTO 01004KT 10SM CLR 13/01 A3026 RMK AO2 T01300013

More Conditions Fewer Conditions

Pressure 30.26 in
Visibility 10.0 miles
Clouds Clear
Dew Point 37 °F
Humidity 48%
Rainfall 0.00 in
Snow Depth Not available.
UV 9 out of 12
Pollen 9.80 out of 12
Air Quality Not available.
Flu Activity Not available.
METAR KJKA 281615Z AUTO 01004KT 10SM CLR 13/01 A3026 RMK AO2 T01300013

More Conditions Fewer Conditions

10-Day Weather Forecast

Almanac

Astronomy

Mar. 28, 2015 Rise Set
Actual Time
Civil Twilight
Nautical Twilight
Astronomical Twilight
Moon
Length of Visible Light
Length of Day
Tomorrow will be .
, % of the Moon is Illuminated

Today's Extremes

State Highs State Lows

Community

WunderPhotos

Upload Photos

1,809,020 photos uploaded!

WunderBlogs® & News

Nearby

Air Quality

  Air Quality AQ Index Pollutant
Not available.

Snow Depth

Station Depth Elevation

Earthquake Activity

City Distance Mag. Time & Date
Minimum magnitude displayed is 2.5.

Coastal Water Temperatures

Place Temperature

Stations

Nearby Weather Stations

Station Location Temp. Windchill Dew Point Humidity Wind Precip. Elev Updated Type